首页
METAR-TAF:

METAR-TAF

机场 :

Quesnel, 不列颠哥伦比亚, 加拿大

纬度: 53-02N, 经度: 122-31W, 海拔: 545米

当前天气观测

该预报发布于23分钟前的20:00 UTC
风速10节,风向西转西北,有时为21节阵风
温度 10°C
湿度 50%
气压 1007 hPa
能見度: 14.5公里
多云层高于6600英尺
阴天层高于7800英尺

METAR: CYQZ 182000Z AUTO 29010G21KT 9SM BKN066 OVC078 10/M00 A2975 RMK SLP091 DENSITY ALT 1900FT

时间: 13:23 (20:23 UTC)

预报

该预报发布于1小时和45分钟前的18:38 UTC
预报有效从18日的 19点(UTC)到 19日的 06点(UTC)
风速10节,风向西北
能見度: 10公里
少量云层高于3000英尺
多云层高于6000英尺
短暂存在
从 18日的 19点(UTC)到 19日的 06点(UTC)
能見度: 10公里
多云层高于3000英尺
小阵雨

TAF: CYQZ 181838Z 1819/1906 31010KT P6SM FEW030 BKN060 TEMPO 1819/1906 P6SM -SHRA BKN030 RMK FCST BASED ON AUTO OBS. NXT FCST BY 190100Z

超过4000个机场的气象观测和天气预报(METAR&TAF报告)。

可查询的气象台以黄色和红色小点在地图上表示。

将鼠标移到小点上方,可查看气象台名称。

然后点击查看天气观测和预报。

如需切换地图:点击带黑十字的绿色按钮放大地图;点击带横线的绿色按钮缩小地图;或者点击绿色箭头查看邻近地区的地图。


METAR-TAF: